KRFD/RFD METAR and TAF weather

Enter ICAO airport designator
Station Type Date Time Source
KRFD METAR 2019/07/21 08:54 UTC NOAA

KRFD 210854Z 03010KT 10SM TS BKN010 OVC050CB 23/21 A2992 RMK AO2 LTG DSNT NE AND E TSB23 SLP127 FRQ LTGIC E TS E MOV E 60000 T02280206 50000


Station Type Date Time Source
KRFD Decoded METAR 2019/07/21 08:54 UTC NOAA

GREATER ROCKFORD AIRPORT, IL, United States (KRFD) 42-12N 89-06W 221M
Jul 21, 2019 - 04:54 AM EDT / 2019.07.21 0854 UTC
Wind: from the NNE (030 degrees) at 12 MPH (10 KT):0
Visibility: 10 mile(s):0
Sky conditions: overcast
Weather: thunder; Cumulonimbus clouds, lightning observed
Temperature: 73.0 F (22.8 C)
Dew Point: 69.1 F (20.6 C)
Relative Humidity: 87%
Pressure (altimeter): 29.92 in. Hg (1013 hPa)
Pressure tendency: 0.00 inches (0.0 hPa) higher than three hours ago
ob: KRFD 210854Z 03010KT 10SM TS BKN010 OVC050CB 23/21 A2992 RMK AO2 LTG DSNT NE AND E TSB23 SLP127 FRQ LTGIC E TS E MOV E 60000 T02280206 50000
cycle: 9

Station Type Date Time Source
KRFD TAF 2019/07/21 09:58 UTC NOAA

TAF
AMD KRFD 210858Z 2109/2206 04007KT P6SM VCSH OVC009
FM211500 04010KT P6SM SCT010 OVC015
FM211900 05010KT P6SM SCT025 BKN100
FM220100 03006KT P6SM BKN060

Example: see airport list